sensor_id;sensor_type;location;lat;lon;timestamp;P1;durP1;ratioP1;P2;durP2;ratioP2
6999;SDS011;3540;53.242;10.408;2022-08-19T00:00:05;14.80;;;10.60;;
6999;SDS011;3540;53.242;10.408;2022-08-19T00:02:33;14.87;;;10.17;;
6999;SDS011;3540;53.242;10.408;2022-08-19T00:04:59;13.07;;;10.47;;
6999;SDS011;3540;53.242;10.408;2022-08-19T00:07:25;15.80;;;10.80;;
6999;SDS011;3540;53.242;10.408;2022-08-19T00:09:51;14.50;;;11.30;;
6999;SDS011;3540;53.242;10.408;2022-08-19T00:12:16;14.07;;;10.17;;
6999;SDS011;3540;53.242;10.408;2022-08-19T00:14:42;15.00;;;10.47;;
6999;SDS011;3540;53.242;10.408;2022-08-19T00:17:08;13.63;;;9.77;;
6999;SDS011;3540;53.242;10.408;2022-08-19T00:19:35;15.47;;;9.80;;
6999;SDS011;3540;53.242;10.408;2022-08-19T00:22:01;21.33;;;10.00;;
6999;SDS011;3540;53.242;10.408;2022-08-19T00:24:28;15.57;;;8.80;;
6999;SDS011;3540;53.242;10.408;2022-08-19T00:26:54;11.97;;;8.67;;
6999;SDS011;3540;53.242;10.408;2022-08-19T00:29:21;15.30;;;10.07;;
6999;SDS011;3540;53.242;10.408;2022-08-19T00:31:49;14.77;;;9.37;;
6999;SDS011;3540;53.242;10.408;2022-08-19T00:34:20;15.53;;;9.50;;
6999;SDS011;3540;53.242;10.408;2022-08-19T00:36:46;17.80;;;10.20;;
6999;SDS011;3540;53.242;10.408;2022-08-19T00:39:13;18.73;;;10.07;;
6999;SDS011;3540;53.242;10.408;2022-08-19T00:41:43;13.47;;;9.67;;
6999;SDS011;3540;53.242;10.408;2022-08-19T00:44:22;13.43;;;9.20;;
6999;SDS011;3540;53.242;10.408;2022-08-19T00:46:50;14.50;;;9.97;;
6999;SDS011;3540;53.242;10.408;2022-08-19T00:51:53;15.57;;;9.67;;
6999;SDS011;3540;53.242;10.408;2022-08-19T00:54:24;12.37;;;9.13;;
6999;SDS011;3540;53.242;10.408;2022-08-19T00:56:49;12.60;;;8.87;;
6999;SDS011;3540;53.242;10.408;2022-08-19T00:59:16;13.73;;;9.13;;
6999;SDS011;3540;53.242;10.408;2022-08-19T01:01:44;13.03;;;9.03;;
6999;SDS011;3540;53.242;10.408;2022-08-19T01:04:11;11.97;;;8.77;;
6999;SDS011;3540;53.242;10.408;2022-08-19T01:06:38;13.47;;;9.10;;
6999;SDS011;3540;53.242;10.408;2022-08-19T01:09:06;14.37;;;8.90;;
6999;SDS011;3540;53.242;10.408;2022-08-19T01:11:35;13.77;;;9.10;;
6999;SDS011;3540;53.242;10.408;2022-08-19T01:14:04;12.43;;;8.53;;
6999;SDS011;3540;53.242;10.408;2022-08-19T01:16:30;11.57;;;8.33;;
6999;SDS011;3540;53.242;10.408;2022-08-19T01:18:57;11.23;;;9.20;;
6999;SDS011;3540;53.242;10.408;2022-08-19T01:23:53;14.97;;;8.70;;
6999;SDS011;3540;53.242;10.408;2022-08-19T01:26:21;12.23;;;8.87;;
6999;SDS011;3540;53.242;10.408;2022-08-19T01:28:48;10.23;;;8.40;;
6999;SDS011;3540;53.242;10.408;2022-08-19T01:31:18;16.07;;;9.27;;
6999;SDS011;3540;53.242;10.408;2022-08-19T01:33:49;12.30;;;8.50;;
6999;SDS011;3540;53.242;10.408;2022-08-19T01:36:28;13.23;;;8.93;;
6999;SDS011;3540;53.242;10.408;2022-08-19T01:38:58;11.53;;;9.17;;
6999;SDS011;3540;53.242;10.408;2022-08-19T01:41:26;12.73;;;9.47;;
6999;SDS011;3540;53.242;10.408;2022-08-19T01:43:52;11.87;;;9.47;;
6999;SDS011;3540;53.242;10.408;2022-08-19T01:46:18;13.87;;;9.70;;
6999;SDS011;3540;53.242;10.408;2022-08-19T01:48:45;13.90;;;9.70;;
6999;SDS011;3540;53.242;10.408;2022-08-19T01:51:11;16.00;;;9.67;;
6999;SDS011;3540;53.242;10.408;2022-08-19T01:53:37;10.07;;;8.53;;
6999;SDS011;3540;53.242;10.408;2022-08-19T01:56:03;14.30;;;8.83;;
6999;SDS011;3540;53.242;10.408;2022-08-19T01:58:31;12.63;;;9.20;;
6999;SDS011;3540;53.242;10.408;2022-08-19T02:01:03;10.43;;;8.20;;
6999;SDS011;3540;53.242;10.408;2022-08-19T02:03:30;9.80;;;8.80;;
6999;SDS011;3540;53.242;10.408;2022-08-19T02:05:57;12.43;;;9.10;;
6999;SDS011;3540;53.242;10.408;2022-08-19T02:08:24;12.90;;;9.03;;
6999;SDS011;3540;53.242;10.408;2022-08-19T02:10:51;13.63;;;9.40;;
6999;SDS011;3540;53.242;10.408;2022-08-19T02:13:18;16.97;;;9.30;;
6999;SDS011;3540;53.242;10.408;2022-08-19T02:15:44;13.60;;;9.77;;
6999;SDS011;3540;53.242;10.408;2022-08-19T02:18:10;12.53;;;9.43;;
6999;SDS011;3540;53.242;10.408;2022-08-19T02:20:36;11.87;;;8.80;;
6999;SDS011;3540;53.242;10.408;2022-08-19T02:23:03;13.80;;;9.33;;
6999;SDS011;3540;53.242;10.408;2022-08-19T02:25:30;15.13;;;8.37;;
6999;SDS011;3540;53.242;10.408;2022-08-19T02:27:56;11.33;;;8.67;;
6999;SDS011;3540;53.242;10.408;2022-08-19T02:30:21;12.83;;;8.57;;
6999;SDS011;3540;53.242;10.408;2022-08-19T02:32:47;10.10;;;8.67;;
6999;SDS011;3540;53.242;10.408;2022-08-19T02:35:13;12.53;;;8.53;;
6999;SDS011;3540;53.242;10.408;2022-08-19T02:37:40;10.70;;;8.23;;
6999;SDS011;3540;53.242;10.408;2022-08-19T02:40:25;10.07;;;7.97;;
6999;SDS011;3540;53.242;10.408;2022-08-19T02:42:52;10.97;;;8.50;;
6999;SDS011;3540;53.242;10.408;2022-08-19T02:45:18;13.00;;;8.23;;
6999;SDS011;3540;53.242;10.408;2022-08-19T02:47:43;15.87;;;8.90;;
6999;SDS011;3540;53.242;10.408;2022-08-19T02:50:09;9.40;;;8.23;;
6999;SDS011;3540;53.242;10.408;2022-08-19T02:52:35;11.63;;;8.43;;
6999;SDS011;3540;53.242;10.408;2022-08-19T02:55:01;13.57;;;8.57;;
6999;SDS011;3540;53.242;10.408;2022-08-19T02:57:27;11.77;;;8.37;;
6999;SDS011;3540;53.242;10.408;2022-08-19T02:59:52;11.37;;;8.17;;
6999;SDS011;3540;53.242;10.408;2022-08-19T03:02:18;14.33;;;9.33;;
6999;SDS011;3540;53.242;10.408;2022-08-19T03:04:44;10.97;;;7.70;;
6999;SDS011;3540;53.242;10.408;2022-08-19T03:07:14;11.13;;;8.50;;
6999;SDS011;3540;53.242;10.408;2022-08-19T03:09:40;13.00;;;8.67;;
6999;SDS011;3540;53.242;10.408;2022-08-19T03:12:09;13.43;;;9.23;;
6999;SDS011;3540;53.242;10.408;2022-08-19T03:14:35;16.97;;;10.87;;
6999;SDS011;3540;53.242;10.408;2022-08-19T03:17:01;15.27;;;10.53;;
6999;SDS011;3540;53.242;10.408;2022-08-19T03:19:29;16.33;;;10.93;;
6999;SDS011;3540;53.242;10.408;2022-08-19T03:21:54;18.13;;;11.60;;
6999;SDS011;3540;53.242;10.408;2022-08-19T03:24:20;18.00;;;12.83;;
6999;SDS011;3540;53.242;10.408;2022-08-19T03:26:47;19.43;;;14.10;;
6999;SDS011;3540;53.242;10.408;2022-08-19T03:29:15;21.57;;;13.90;;
6999;SDS011;3540;53.242;10.408;2022-08-19T03:31:42;23.47;;;15.03;;
6999;SDS011;3540;53.242;10.408;2022-08-19T03:34:13;19.93;;;13.63;;
6999;SDS011;3540;53.242;10.408;2022-08-19T03:36:40;21.40;;;14.60;;
6999;SDS011;3540;53.242;10.408;2022-08-19T03:39:06;21.37;;;14.03;;
6999;SDS011;3540;53.242;10.408;2022-08-19T03:41:38;18.50;;;13.23;;
6999;SDS011;3540;53.242;10.408;2022-08-19T03:44:05;20.07;;;13.83;;
6999;SDS011;3540;53.242;10.408;2022-08-19T03:46:32;19.20;;;13.67;;
6999;SDS011;3540;53.242;10.408;2022-08-19T03:48:58;19.67;;;13.67;;
6999;SDS011;3540;53.242;10.408;2022-08-19T03:51:30;17.73;;;12.63;;
6999;SDS011;3540;53.242;10.408;2022-08-19T03:53:58;24.03;;;14.70;;
6999;SDS011;3540;53.242;10.408;2022-08-19T03:56:25;21.57;;;14.07;;
6999;SDS011;3540;53.242;10.408;2022-08-19T03:58:52;19.17;;;13.57;;
6999;SDS011;3540;53.242;10.408;2022-08-19T04:01:20;20.83;;;14.03;;
6999;SDS011;3540;53.242;10.408;2022-08-19T04:03:47;20.30;;;12.83;;
6999;SDS011;3540;53.242;10.408;2022-08-19T04:06:17;20.43;;;12.80;;
6999;SDS011;3540;53.242;10.408;2022-08-19T04:08:46;20.60;;;12.97;;
6999;SDS011;3540;53.242;10.408;2022-08-19T04:11:15;16.97;;;12.40;;
6999;SDS011;3540;53.242;10.408;2022-08-19T04:13:42;19.87;;;12.50;;
6999;SDS011;3540;53.242;10.408;2022-08-19T04:16:09;26.23;;;13.83;;
6999;SDS011;3540;53.242;10.408;2022-08-19T04:18:36;17.33;;;12.13;;
6999;SDS011;3540;53.242;10.408;2022-08-19T04:21:03;21.23;;;11.23;;
6999;SDS011;3540;53.242;10.408;2022-08-19T04:23:30;18.77;;;11.40;;
6999;SDS011;3540;53.242;10.408;2022-08-19T04:25:57;17.57;;;10.70;;
6999;SDS011;3540;53.242;10.408;2022-08-19T04:28:23;14.43;;;9.93;;
6999;SDS011;3540;53.242;10.408;2022-08-19T04:30:50;17.00;;;10.70;;
6999;SDS011;3540;53.242;10.408;2022-08-19T04:33:19;17.90;;;11.27;;
6999;SDS011;3540;53.242;10.408;2022-08-19T04:35:47;17.57;;;11.00;;
6999;SDS011;3540;53.242;10.408;2022-08-19T04:38:15;19.43;;;10.93;;
6999;SDS011;3540;53.242;10.408;2022-08-19T04:40:43;21.17;;;11.83;;
6999;SDS011;3540;53.242;10.408;2022-08-19T04:43:28;22.93;;;12.77;;
6999;SDS011;3540;53.242;10.408;2022-08-19T04:45:54;23.90;;;12.87;;
6999;SDS011;3540;53.242;10.408;2022-08-19T04:48:20;24.17;;;12.87;;
6999;SDS011;3540;53.242;10.408;2022-08-19T04:50:50;22.87;;;12.67;;
6999;SDS011;3540;53.242;10.408;2022-08-19T04:53:25;22.83;;;13.20;;
6999;SDS011;3540;53.242;10.408;2022-08-19T04:55:56;25.83;;;13.27;;
6999;SDS011;3540;53.242;10.408;2022-08-19T04:58:28;25.43;;;14.40;;
6999;SDS011;3540;53.242;10.408;2022-08-19T05:00:54;24.33;;;13.13;;
6999;SDS011;3540;53.242;10.408;2022-08-19T05:03:20;20.60;;;12.27;;
6999;SDS011;3540;53.242;10.408;2022-08-19T05:05:47;23.23;;;13.77;;
6999;SDS011;3540;53.242;10.408;2022-08-19T05:08:14;20.77;;;12.93;;
6999;SDS011;3540;53.242;10.408;2022-08-19T05:10:45;25.17;;;14.03;;
6999;SDS011;3540;53.242;10.408;2022-08-19T05:13:14;21.87;;;12.50;;
6999;SDS011;3540;53.242;10.408;2022-08-19T05:15:41;22.40;;;12.60;;
6999;SDS011;3540;53.242;10.408;2022-08-19T05:18:07;19.37;;;12.53;;
6999;SDS011;3540;53.242;10.408;2022-08-19T05:20:51;22.37;;;12.20;;
6999;SDS011;3540;53.242;10.408;2022-08-19T05:23:35;22.80;;;12.63;;
6999;SDS011;3540;53.242;10.408;2022-08-19T05:26:01;24.83;;;12.80;;
6999;SDS011;3540;53.242;10.408;2022-08-19T05:28:27;21.37;;;12.63;;
6999;SDS011;3540;53.242;10.408;2022-08-19T05:30:52;22.20;;;12.67;;
6999;SDS011;3540;53.242;10.408;2022-08-19T05:33:20;24.33;;;12.83;;
6999;SDS011;3540;53.242;10.408;2022-08-19T05:35:46;23.07;;;12.27;;
6999;SDS011;3540;53.242;10.408;2022-08-19T05:38:14;21.43;;;12.60;;
6999;SDS011;3540;53.242;10.408;2022-08-19T05:40:41;22.50;;;13.13;;
6999;SDS011;3540;53.242;10.408;2022-08-19T05:43:12;21.77;;;12.87;;
6999;SDS011;3540;53.242;10.408;2022-08-19T05:45:41;23.13;;;12.87;;
6999;SDS011;3540;53.242;10.408;2022-08-19T05:48:08;22.50;;;13.23;;
6999;SDS011;3540;53.242;10.408;2022-08-19T05:50:36;22.27;;;11.83;;
6999;SDS011;3540;53.242;10.408;2022-08-19T05:53:03;22.03;;;13.37;;
6999;SDS011;3540;53.242;10.408;2022-08-19T05:55:29;19.03;;;13.00;;
6999;SDS011;3540;53.242;10.408;2022-08-19T05:57:55;19.47;;;13.13;;
6999;SDS011;3540;53.242;10.408;2022-08-19T06:00:21;20.97;;;13.00;;
6999;SDS011;3540;53.242;10.408;2022-08-19T06:02:46;23.77;;;14.10;;
6999;SDS011;3540;53.242;10.408;2022-08-19T06:05:12;23.40;;;13.47;;
6999;SDS011;3540;53.242;10.408;2022-08-19T06:07:38;24.53;;;13.83;;
6999;SDS011;3540;53.242;10.408;2022-08-19T06:10:05;24.17;;;14.47;;
6999;SDS011;3540;53.242;10.408;2022-08-19T06:12:32;21.40;;;14.63;;
6999;SDS011;3540;53.242;10.408;2022-08-19T06:14:59;29.63;;;16.53;;
6999;SDS011;3540;53.242;10.408;2022-08-19T06:17:27;28.40;;;16.70;;
6999;SDS011;3540;53.242;10.408;2022-08-19T06:19:54;26.00;;;15.83;;
6999;SDS011;3540;53.242;10.408;2022-08-19T06:22:20;27.83;;;15.53;;
6999;SDS011;3540;53.242;10.408;2022-08-19T06:24:46;26.00;;;16.43;;
6999;SDS011;3540;53.242;10.408;2022-08-19T06:27:12;26.83;;;17.27;;
6999;SDS011;3540;53.242;10.408;2022-08-19T06:29:37;23.87;;;16.10;;
6999;SDS011;3540;53.242;10.408;2022-08-19T06:32:03;26.90;;;16.33;;
6999;SDS011;3540;53.242;10.408;2022-08-19T06:34:30;31.20;;;19.70;;
6999;SDS011;3540;53.242;10.408;2022-08-19T06:36:58;32.70;;;18.73;;
6999;SDS011;3540;53.242;10.408;2022-08-19T06:39:30;28.53;;;18.47;;
6999;SDS011;3540;53.242;10.408;2022-08-19T06:42:00;31.73;;;18.07;;
6999;SDS011;3540;53.242;10.408;2022-08-19T06:44:29;37.93;;;21.13;;
6999;SDS011;3540;53.242;10.408;2022-08-19T06:47:00;35.83;;;21.13;;
6999;SDS011;3540;53.242;10.408;2022-08-19T06:49:27;39.43;;;24.27;;
6999;SDS011;3540;53.242;10.408;2022-08-19T06:51:55;45.77;;;27.37;;
6999;SDS011;3540;53.242;10.408;2022-08-19T06:54:22;44.27;;;26.97;;
6999;SDS011;3540;53.242;10.408;2022-08-19T06:56:48;39.80;;;26.17;;
6999;SDS011;3540;53.242;10.408;2022-08-19T06:59:15;46.13;;;26.53;;
6999;SDS011;3540;53.242;10.408;2022-08-19T07:01:48;40.30;;;26.03;;
6999;SDS011;3540;53.242;10.408;2022-08-19T07:04:21;42.07;;;25.33;;
6999;SDS011;3540;53.242;10.408;2022-08-19T07:06:49;47.70;;;26.40;;
6999;SDS011;3540;53.242;10.408;2022-08-19T07:09:16;43.60;;;27.77;;
6999;SDS011;3540;53.242;10.408;2022-08-19T07:11:47;47.40;;;28.67;;
6999;SDS011;3540;53.242;10.408;2022-08-19T07:14:14;45.60;;;28.87;;
6999;SDS011;3540;53.242;10.408;2022-08-19T07:16:42;45.53;;;28.83;;
6999;SDS011;3540;53.242;10.408;2022-08-19T07:19:10;42.43;;;29.13;;
6999;SDS011;3540;53.242;10.408;2022-08-19T07:21:36;48.87;;;29.73;;
6999;SDS011;3540;53.242;10.408;2022-08-19T07:24:02;45.87;;;29.10;;
6999;SDS011;3540;53.242;10.408;2022-08-19T07:26:30;46.83;;;30.53;;
6999;SDS011;3540;53.242;10.408;2022-08-19T07:28:57;49.60;;;30.97;;
6999;SDS011;3540;53.242;10.408;2022-08-19T07:31:26;44.10;;;29.33;;
6999;SDS011;3540;53.242;10.408;2022-08-19T07:33:53;49.63;;;29.53;;
6999;SDS011;3540;53.242;10.408;2022-08-19T07:36:25;52.53;;;31.87;;
6999;SDS011;3540;53.242;10.408;2022-08-19T07:38:57;58.60;;;33.53;;
6999;SDS011;3540;53.242;10.408;2022-08-19T07:41:25;52.27;;;32.23;;
6999;SDS011;3540;53.242;10.408;2022-08-19T07:43:53;51.93;;;31.93;;
6999;SDS011;3540;53.242;10.408;2022-08-19T07:46:20;50.30;;;32.60;;
6999;SDS011;3540;53.242;10.408;2022-08-19T07:48:46;56.00;;;33.80;;
6999;SDS011;3540;53.242;10.408;2022-08-19T07:51:15;54.67;;;32.87;;
6999;SDS011;3540;53.242;10.408;2022-08-19T07:53:46;54.20;;;32.83;;
6999;SDS011;3540;53.242;10.408;2022-08-19T07:56:15;55.37;;;33.73;;
6999;SDS011;3540;53.242;10.408;2022-08-19T07:58:42;56.17;;;33.30;;
6999;SDS011;3540;53.242;10.408;2022-08-19T08:01:14;59.17;;;36.40;;
6999;SDS011;3540;53.242;10.408;2022-08-19T08:03:42;57.30;;;35.47;;
6999;SDS011;3540;53.242;10.408;2022-08-19T08:06:27;64.80;;;35.57;;
6999;SDS011;3540;53.242;10.408;2022-08-19T08:09:11;70.87;;;37.67;;
6999;SDS011;3540;53.242;10.408;2022-08-19T08:11:48;60.17;;;36.40;;
6999;SDS011;3540;53.242;10.408;2022-08-19T08:14:20;62.90;;;37.10;;
6999;SDS011;3540;53.242;10.408;2022-08-19T08:16:48;70.57;;;36.23;;
6999;SDS011;3540;53.242;10.408;2022-08-19T08:19:16;60.03;;;34.37;;
6999;SDS011;3540;53.242;10.408;2022-08-19T08:21:44;60.37;;;35.10;;
6999;SDS011;3540;53.242;10.408;2022-08-19T08:24:10;72.40;;;37.27;;
6999;SDS011;3540;53.242;10.408;2022-08-19T08:26:37;55.43;;;33.40;;
6999;SDS011;3540;53.242;10.408;2022-08-19T08:29:03;63.63;;;34.80;;
6999;SDS011;3540;53.242;10.408;2022-08-19T08:31:28;71.33;;;36.97;;
6999;SDS011;3540;53.242;10.408;2022-08-19T08:33:54;64.77;;;35.53;;
6999;SDS011;3540;53.242;10.408;2022-08-19T08:36:20;61.17;;;34.23;;
6999;SDS011;3540;53.242;10.408;2022-08-19T08:38:46;65.00;;;34.87;;
6999;SDS011;3540;53.242;10.408;2022-08-19T08:41:31;70.57;;;35.50;;
6999;SDS011;3540;53.242;10.408;2022-08-19T08:43:59;62.63;;;35.47;;
6999;SDS011;3540;53.242;10.408;2022-08-19T08:51:52;59.93;;;32.43;;
6999;SDS011;3540;53.242;10.408;2022-08-19T08:54:25;64.17;;;32.33;;
6999;SDS011;3540;53.242;10.408;2022-08-19T08:57:10;57.00;;;31.83;;
6999;SDS011;3540;53.242;10.408;2022-08-19T08:59:45;53.10;;;29.47;;
6999;SDS011;3540;53.242;10.408;2022-08-19T09:02:16;60.67;;;31.00;;
6999;SDS011;3540;53.242;10.408;2022-08-19T09:04:45;56.57;;;30.80;;
6999;SDS011;3540;53.242;10.408;2022-08-19T09:10:14;50.83;;;29.13;;
6999;SDS011;3540;53.242;10.408;2022-08-19T09:13:15;56.57;;;29.77;;
6999;SDS011;3540;53.242;10.408;2022-08-19T09:15:53;52.53;;;29.63;;
6999;SDS011;3540;53.242;10.408;2022-08-19T09:18:23;55.23;;;29.17;;
6999;SDS011;3540;53.242;10.408;2022-08-19T09:20:49;50.93;;;27.13;;
6999;SDS011;3540;53.242;10.408;2022-08-19T09:23:15;49.17;;;27.53;;
6999;SDS011;3540;53.242;10.408;2022-08-19T09:25:40;52.60;;;28.33;;
6999;SDS011;3540;53.242;10.408;2022-08-19T09:28:06;48.90;;;27.93;;
6999;SDS011;3540;53.242;10.408;2022-08-19T09:30:34;46.77;;;28.03;;
6999;SDS011;3540;53.242;10.408;2022-08-19T09:33:04;47.60;;;27.00;;
6999;SDS011;3540;53.242;10.408;2022-08-19T09:35:31;47.50;;;26.07;;
6999;SDS011;3540;53.242;10.408;2022-08-19T09:37:57;45.67;;;26.40;;
6999;SDS011;3540;53.242;10.408;2022-08-19T09:40:24;44.17;;;25.53;;
6999;SDS011;3540;53.242;10.408;2022-08-19T09:42:54;48.07;;;25.17;;
6999;SDS011;3540;53.242;10.408;2022-08-19T09:45:20;42.63;;;25.03;;
6999;SDS011;3540;53.242;10.408;2022-08-19T09:47:46;40.17;;;24.27;;
6999;SDS011;3540;53.242;10.408;2022-08-19T09:50:13;41.37;;;23.57;;
6999;SDS011;3540;53.242;10.408;2022-08-19T09:52:39;45.83;;;25.23;;
6999;SDS011;3540;53.242;10.408;2022-08-19T09:55:07;40.43;;;25.13;;
6999;SDS011;3540;53.242;10.408;2022-08-19T09:57:35;43.37;;;25.30;;
6999;SDS011;3540;53.242;10.408;2022-08-19T10:00:02;40.80;;;24.60;;
6999;SDS011;3540;53.242;10.408;2022-08-19T10:02:30;45.83;;;25.57;;
6999;SDS011;3540;53.242;10.408;2022-08-19T10:04:55;42.50;;;24.70;;
6999;SDS011;3540;53.242;10.408;2022-08-19T10:07:40;45.03;;;24.57;;
6999;SDS011;3540;53.242;10.408;2022-08-19T10:10:06;47.23;;;25.80;;
6999;SDS011;3540;53.242;10.408;2022-08-19T10:12:32;45.67;;;26.50;;
6999;SDS011;3540;53.242;10.408;2022-08-19T10:14:59;44.73;;;25.43;;
6999;SDS011;3540;53.242;10.408;2022-08-19T10:17:25;44.97;;;25.73;;
6999;SDS011;3540;53.242;10.408;2022-08-19T10:19:51;45.27;;;26.53;;
6999;SDS011;3540;53.242;10.408;2022-08-19T10:22:17;42.87;;;24.50;;
6999;SDS011;3540;53.242;10.408;2022-08-19T10:24:43;47.40;;;26.40;;
6999;SDS011;3540;53.242;10.408;2022-08-19T10:27:12;49.37;;;26.43;;
6999;SDS011;3540;53.242;10.408;2022-08-19T10:29:39;50.43;;;26.13;;
6999;SDS011;3540;53.242;10.408;2022-08-19T10:32:06;42.10;;;24.83;;
6999;SDS011;3540;53.242;10.408;2022-08-19T10:34:33;45.27;;;24.10;;
6999;SDS011;3540;53.242;10.408;2022-08-19T10:37:00;45.37;;;24.53;;
6999;SDS011;3540;53.242;10.408;2022-08-19T10:39:28;44.37;;;25.67;;
6999;SDS011;3540;53.242;10.408;2022-08-19T10:41:55;52.53;;;27.60;;
6999;SDS011;3540;53.242;10.408;2022-08-19T10:44:21;49.47;;;27.43;;
6999;SDS011;3540;53.242;10.408;2022-08-19T10:46:48;49.97;;;28.67;;
6999;SDS011;3540;53.242;10.408;2022-08-19T10:49:14;48.20;;;28.80;;
6999;SDS011;3540;53.242;10.408;2022-08-19T10:51:40;52.10;;;28.73;;
6999;SDS011;3540;53.242;10.408;2022-08-19T10:54:25;49.70;;;28.97;;
6999;SDS011;3540;53.242;10.408;2022-08-19T10:57:11;43.53;;;27.33;;
6999;SDS011;3540;53.242;10.408;2022-08-19T10:59:37;49.13;;;27.77;;
6999;SDS011;3540;53.242;10.408;2022-08-19T11:02:04;48.80;;;28.93;;
6999;SDS011;3540;53.242;10.408;2022-08-19T11:04:31;53.17;;;30.23;;
6999;SDS011;3540;53.242;10.408;2022-08-19T11:06:58;51.90;;;29.53;;
6999;SDS011;3540;53.242;10.408;2022-08-19T11:09:24;53.23;;;29.77;;
6999;SDS011;3540;53.242;10.408;2022-08-19T11:11:54;51.30;;;29.57;;
6999;SDS011;3540;53.242;10.408;2022-08-19T11:14:21;54.30;;;29.87;;
6999;SDS011;3540;53.242;10.408;2022-08-19T11:16:50;50.10;;;29.37;;
6999;SDS011;3540;53.242;10.408;2022-08-19T11:19:18;43.60;;;26.97;;
6999;SDS011;3540;53.242;10.408;2022-08-19T11:21:45;48.10;;;29.53;;
6999;SDS011;3540;53.242;10.408;2022-08-19T11:24:14;51.23;;;28.80;;
6999;SDS011;3540;53.242;10.408;2022-08-19T11:26:45;50.60;;;29.97;;
6999;SDS011;3540;53.242;10.408;2022-08-19T11:29:12;49.43;;;29.20;;
6999;SDS011;3540;53.242;10.408;2022-08-19T11:31:38;52.97;;;28.80;;
6999;SDS011;3540;53.242;10.408;2022-08-19T11:34:07;47.07;;;28.27;;
6999;SDS011;3540;53.242;10.408;2022-08-19T11:36:37;42.10;;;27.60;;
6999;SDS011;3540;53.242;10.408;2022-08-19T11:39:06;42.53;;;26.63;;
6999;SDS011;3540;53.242;10.408;2022-08-19T11:41:32;44.50;;;27.20;;
6999;SDS011;3540;53.242;10.408;2022-08-19T11:43:58;45.27;;;27.83;;
6999;SDS011;3540;53.242;10.408;2022-08-19T11:46:24;48.30;;;28.80;;
6999;SDS011;3540;53.242;10.408;2022-08-19T11:48:54;46.70;;;30.50;;
6999;SDS011;3540;53.242;10.408;2022-08-19T11:51:24;57.63;;;30.83;;
6999;SDS011;3540;53.242;10.408;2022-08-19T11:53:51;52.23;;;31.70;;
6999;SDS011;3540;53.242;10.408;2022-08-19T11:56:18;49.15;;;31.30;;
6999;SDS011;3540;53.242;10.408;2022-08-19T11:58:44;47.10;;;30.90;;
6999;SDS011;3540;53.242;10.408;2022-08-19T12:01:12;52.37;;;32.57;;
6999;SDS011;3540;53.242;10.408;2022-08-19T12:03:41;47.87;;;32.17;;
6999;SDS011;3540;53.242;10.408;2022-08-19T12:06:09;47.63;;;31.73;;
6999;SDS011;3540;53.242;10.408;2022-08-19T12:08:37;44.90;;;30.77;;
6999;SDS011;3540;53.242;10.408;2022-08-19T12:11:03;46.13;;;31.37;;
6999;SDS011;3540;53.242;10.408;2022-08-19T12:13:32;50.53;;;31.90;;
6999;SDS011;3540;53.242;10.408;2022-08-19T12:15:59;43.77;;;28.23;;
6999;SDS011;3540;53.242;10.408;2022-08-19T12:18:25;44.03;;;28.95;;
6999;SDS011;3540;53.242;10.408;2022-08-19T12:20:51;41.58;;;28.17;;
6999;SDS011;3540;53.242;10.408;2022-08-19T12:23:19;44.07;;;30.00;;
6999;SDS011;3540;53.242;10.408;2022-08-19T12:25:46;39.30;;;28.63;;
6999;SDS011;3540;53.242;10.408;2022-08-19T12:28:16;44.20;;;28.73;;
6999;SDS011;3540;53.242;10.408;2022-08-19T12:30:47;39.90;;;29.03;;
6999;SDS011;3540;53.242;10.408;2022-08-19T12:33:13;43.47;;;29.40;;
6999;SDS011;3540;53.242;10.408;2022-08-19T12:35:40;40.05;;;28.13;;
6999;SDS011;3540;53.242;10.408;2022-08-19T12:38:07;36.13;;;27.95;;
6999;SDS011;3540;53.242;10.408;2022-08-19T12:40:33;37.10;;;29.00;;
6999;SDS011;3540;53.242;10.408;2022-08-19T12:42:59;37.90;;;28.20;;
6999;SDS011;3540;53.242;10.408;2022-08-19T12:45:25;39.83;;;28.05;;
6999;SDS011;3540;53.242;10.408;2022-08-19T12:47:50;39.88;;;28.75;;
6999;SDS011;3540;53.242;10.408;2022-08-19T12:50:17;38.03;;;29.65;;
6999;SDS011;3540;53.242;10.408;2022-08-19T12:52:44;36.80;;;30.95;;
6999;SDS011;3540;53.242;10.408;2022-08-19T12:55:10;40.80;;;31.97;;
6999;SDS011;3540;53.242;10.408;2022-08-19T12:57:36;43.35;;;31.48;;
6999;SDS011;3540;53.242;10.408;2022-08-19T13:02:35;41.78;;;30.55;;
6999;SDS011;3540;53.242;10.408;2022-08-19T13:05:02;39.92;;;29.50;;
6999;SDS011;3540;53.242;10.408;2022-08-19T13:07:29;41.47;;;29.33;;
6999;SDS011;3540;53.242;10.408;2022-08-19T13:09:56;35.60;;;27.00;;
6999;SDS011;3540;53.242;10.408;2022-08-19T13:12:22;35.22;;;27.58;;
6999;SDS011;3540;53.242;10.408;2022-08-19T13:14:51;34.20;;;27.42;;
6999;SDS011;3540;53.242;10.408;2022-08-19T13:17:17;41.78;;;28.08;;
6999;SDS011;3540;53.242;10.408;2022-08-19T13:19:43;33.03;;;25.95;;
6999;SDS011;3540;53.242;10.408;2022-08-19T13:22:08;29.00;;;24.35;;
6999;SDS011;3540;53.242;10.408;2022-08-19T13:24:34;29.70;;;24.08;;
6999;SDS011;3540;53.242;10.408;2022-08-19T13:27:01;29.52;;;24.55;;
6999;SDS011;3540;53.242;10.408;2022-08-19T13:29:27;26.40;;;23.30;;
6999;SDS011;3540;53.242;10.408;2022-08-19T13:32:11;32.05;;;24.08;;
6999;SDS011;3540;53.242;10.408;2022-08-19T13:34:55;32.72;;;27.00;;
6999;SDS011;3540;53.242;10.408;2022-08-19T13:37:21;30.90;;;25.23;;
6999;SDS011;3540;53.242;10.408;2022-08-19T13:40:06;34.22;;;25.60;;
6999;SDS011;3540;53.242;10.408;2022-08-19T13:42:36;31.88;;;25.67;;
6999;SDS011;3540;53.242;10.408;2022-08-19T13:45:02;32.42;;;25.02;;
6999;SDS011;3540;53.242;10.408;2022-08-19T13:47:29;32.63;;;25.73;;
6999;SDS011;3540;53.242;10.408;2022-08-19T13:49:55;30.45;;;24.98;;
6999;SDS011;3540;53.242;10.408;2022-08-19T13:52:21;26.08;;;22.45;;
6999;SDS011;3540;53.242;10.408;2022-08-19T13:54:46;23.45;;;20.00;;
6999;SDS011;3540;53.242;10.408;2022-08-19T13:57:13;28.33;;;22.33;;
6999;SDS011;3540;53.242;10.408;2022-08-19T13:59:39;28.92;;;21.98;;
6999;SDS011;3540;53.242;10.408;2022-08-19T14:02:05;28.88;;;22.58;;
6999;SDS011;3540;53.242;10.408;2022-08-19T14:04:31;25.30;;;20.67;;
6999;SDS011;3540;53.242;10.408;2022-08-19T14:06:57;23.25;;;20.02;;
6999;SDS011;3540;53.242;10.408;2022-08-19T14:09:23;25.25;;;21.27;;
6999;SDS011;3540;53.242;10.408;2022-08-19T14:11:48;25.50;;;20.15;;
6999;SDS011;3540;53.242;10.408;2022-08-19T14:14:15;24.00;;;17.27;;
6999;SDS011;3540;53.242;10.408;2022-08-19T14:16:41;25.65;;;20.67;;
6999;SDS011;3540;53.242;10.408;2022-08-19T14:19:07;24.77;;;19.73;;
6999;SDS011;3540;53.242;10.408;2022-08-19T14:21:33;24.75;;;19.98;;
6999;SDS011;3540;53.242;10.408;2022-08-19T14:24:00;24.15;;;21.30;;
6999;SDS011;3540;53.242;10.408;2022-08-19T14:26:26;26.80;;;21.63;;
6999;SDS011;3540;53.242;10.408;2022-08-19T14:28:52;24.75;;;20.88;;
6999;SDS011;3540;53.242;10.408;2022-08-19T14:31:18;26.42;;;20.33;;
6999;SDS011;3540;53.242;10.408;2022-08-19T14:33:45;24.45;;;19.55;;
6999;SDS011;3540;53.242;10.408;2022-08-19T14:36:12;28.40;;;20.48;;
6999;SDS011;3540;53.242;10.408;2022-08-19T14:38:38;23.77;;;19.00;;
6999;SDS011;3540;53.242;10.408;2022-08-19T14:41:11;21.17;;;18.42;;
6999;SDS011;3540;53.242;10.408;2022-08-19T14:43:44;19.70;;;17.02;;
6999;SDS011;3540;53.242;10.408;2022-08-19T14:46:13;17.75;;;15.85;;
6999;SDS011;3540;53.242;10.408;2022-08-19T14:48:47;22.48;;;17.75;;
6999;SDS011;3540;53.242;10.408;2022-08-19T14:51:14;18.13;;;16.23;;
6999;SDS011;3540;53.242;10.408;2022-08-19T14:53:40;18.85;;;16.77;;
6999;SDS011;3540;53.242;10.408;2022-08-19T14:56:10;18.30;;;15.93;;
6999;SDS011;3540;53.242;10.408;2022-08-19T14:58:38;18.33;;;16.10;;